sensor_id;sensor_type;location;lat;lon;timestamp;pressure;altitude;pressure_sealevel;temperature;humidity
24825;BME280;12910;57.690;11.974;2023-04-22T00:01:09;100827.41;;;10.37;100.00
24825;BME280;12910;57.690;11.974;2023-04-22T00:03:34;100829.06;;;10.35;100.00
24825;BME280;12910;57.690;11.974;2023-04-22T00:06:00;100816.13;;;10.27;100.00
24825;BME280;12910;57.690;11.974;2023-04-22T00:08:25;100823.75;;;10.25;100.00
24825;BME280;12910;57.690;11.974;2023-04-22T00:10:50;100810.75;;;10.14;100.00
24825;BME280;12910;57.690;11.974;2023-04-22T00:13:16;100822.03;;;10.24;100.00
24825;BME280;12910;57.690;11.974;2023-04-22T00:15:41;100803.06;;;10.16;100.00
24825;BME280;12910;57.690;11.974;2023-04-22T00:18:07;100799.59;;;10.12;100.00
24825;BME280;12910;57.690;11.974;2023-04-22T00:20:39;100791.09;;;10.15;100.00
24825;BME280;12910;57.690;11.974;2023-04-22T00:23:04;100803.97;;;10.18;100.00
24825;BME280;12910;57.690;11.974;2023-04-22T00:25:30;100806.66;;;10.24;100.00
24825;BME280;12910;57.690;11.974;2023-04-22T00:27:55;100804.09;;;10.24;100.00
24825;BME280;12910;57.690;11.974;2023-04-22T00:30:20;100800.78;;;10.28;100.00
24825;BME280;12910;57.690;11.974;2023-04-22T00:32:46;100800.94;;;10.36;100.00
24825;BME280;12910;57.690;11.974;2023-04-22T00:35:13;100800.06;;;10.36;100.00
24825;BME280;12910;57.690;11.974;2023-04-22T00:37:38;100803.50;;;10.36;100.00
24825;BME280;12910;57.690;11.974;2023-04-22T00:40:04;100795.75;;;10.35;100.00
24825;BME280;12910;57.690;11.974;2023-04-22T00:42:31;100793.91;;;10.26;100.00
24825;BME280;12910;57.690;11.974;2023-04-22T00:44:57;100798.22;;;10.30;100.00
24825;BME280;12910;57.690;11.974;2023-04-22T00:47:22;100787.13;;;10.29;100.00
24825;BME280;12910;57.690;11.974;2023-04-22T00:49:52;100791.41;;;10.29;100.00
24825;BME280;12910;57.690;11.974;2023-04-22T00:52:17;100782.78;;;10.25;100.00
24825;BME280;12910;57.690;11.974;2023-04-22T00:54:43;100786.25;;;10.27;100.00
24825;BME280;12910;57.690;11.974;2023-04-22T00:57:09;100772.41;;;10.18;100.00
24825;BME280;12910;57.690;11.974;2023-04-22T00:59:34;100787.06;;;10.26;100.00
24825;BME280;12910;57.690;11.974;2023-04-22T01:02:00;100787.88;;;10.24;100.00
24825;BME280;12910;57.690;11.974;2023-04-22T01:04:25;100769.66;;;10.10;100.00
24825;BME280;12910;57.690;11.974;2023-04-22T01:06:52;100780.66;;;10.06;100.00
24825;BME280;12910;57.690;11.974;2023-04-22T01:09:20;100788.44;;;10.10;100.00
24825;BME280;12910;57.690;11.974;2023-04-22T01:11:46;100785.00;;;10.08;100.00
24825;BME280;12910;57.690;11.974;2023-04-22T01:14:12;100784.03;;;10.03;100.00
24825;BME280;12910;57.690;11.974;2023-04-22T01:16:37;100793.28;;;9.96;100.00
24825;BME280;12910;57.690;11.974;2023-04-22T01:19:05;100788.94;;;9.92;100.00
24825;BME280;12910;57.690;11.974;2023-04-22T01:21:34;100788.06;;;9.92;100.00
24825;BME280;12910;57.690;11.974;2023-04-22T01:24:00;100789.78;;;9.91;100.00
24825;BME280;12910;57.690;11.974;2023-04-22T01:26:26;100788.03;;;9.90;100.00
24825;BME280;12910;57.690;11.974;2023-04-22T01:28:51;100791.44;;;9.91;100.00
24825;BME280;12910;57.690;11.974;2023-04-22T01:31:17;100788.00;;;9.89;100.00
24825;BME280;12910;57.690;11.974;2023-04-22T01:33:43;100780.28;;;9.87;100.00
24825;BME280;12910;57.690;11.974;2023-04-22T01:36:10;100787.91;;;9.84;100.00
24825;BME280;12910;57.690;11.974;2023-04-22T01:38:35;100789.50;;;9.79;100.00
24825;BME280;12910;57.690;11.974;2023-04-22T01:41:01;100772.09;;;9.64;100.00
24825;BME280;12910;57.690;11.974;2023-04-22T01:43:27;100783.13;;;9.61;100.00
24825;BME280;12910;57.690;11.974;2023-04-22T01:45:53;100786.44;;;9.57;100.00
24825;BME280;12910;57.690;11.974;2023-04-22T01:48:18;100789.78;;;9.53;100.00
24825;BME280;12910;57.690;11.974;2023-04-22T01:50:44;100763.84;;;9.38;100.00
24825;BME280;12910;57.690;11.974;2023-04-22T01:53:09;100787.81;;;9.43;100.00
24825;BME280;12910;57.690;11.974;2023-04-22T01:55:37;100775.00;;;9.41;100.00
24825;BME280;12910;57.690;11.974;2023-04-22T01:58:03;100780.97;;;9.42;100.00
24825;BME280;12910;57.690;11.974;2023-04-22T02:00:28;100777.56;;;9.41;100.00
24825;BME280;12910;57.690;11.974;2023-04-22T02:02:54;100777.59;;;9.43;100.00
24825;BME280;12910;57.690;11.974;2023-04-22T02:05:19;100780.13;;;9.41;100.00
24825;BME280;12910;57.690;11.974;2023-04-22T02:07:44;100771.53;;;9.38;100.00
24825;BME280;12910;57.690;11.974;2023-04-22T02:10:10;100763.59;;;9.28;100.00
24825;BME280;12910;57.690;11.974;2023-04-22T02:12:36;100769.69;;;9.32;100.00
24825;BME280;12910;57.690;11.974;2023-04-22T02:15:01;100773.09;;;9.32;100.00
24825;BME280;12910;57.690;11.974;2023-04-22T02:17:27;100769.50;;;9.26;100.00
24825;BME280;12910;57.690;11.974;2023-04-22T02:19:52;100771.16;;;9.24;100.00
24825;BME280;12910;57.690;11.974;2023-04-22T02:22:18;100766.13;;;9.27;100.00
24825;BME280;12910;57.690;11.974;2023-04-22T02:24:43;100763.47;;;9.22;100.00
24825;BME280;12910;57.690;11.974;2023-04-22T02:27:09;100756.69;;;9.24;100.00
24825;BME280;12910;57.690;11.974;2023-04-22T02:29:34;100749.84;;;9.23;100.00
24825;BME280;12910;57.690;11.974;2023-04-22T02:31:59;100747.91;;;9.13;100.00
24825;BME280;12910;57.690;11.974;2023-04-22T02:34:25;100742.66;;;9.07;100.00
24825;BME280;12910;57.690;11.974;2023-04-22T02:36:51;100745.16;;;9.05;100.00
24825;BME280;12910;57.690;11.974;2023-04-22T02:39:16;100728.72;;;8.95;100.00
24825;BME280;12910;57.690;11.974;2023-04-22T02:41:41;100734.69;;;8.96;100.00
24825;BME280;12910;57.690;11.974;2023-04-22T02:44:07;100739.75;;;8.93;100.00
24825;BME280;12910;57.690;11.974;2023-04-22T02:46:32;100731.09;;;8.87;100.00
24825;BME280;12910;57.690;11.974;2023-04-22T02:48:58;100725.03;;;8.84;100.00
24825;BME280;12910;57.690;11.974;2023-04-22T02:51:23;100734.56;;;8.89;100.00
24825;BME280;12910;57.690;11.974;2023-04-22T02:53:48;100735.25;;;8.84;100.00
24825;BME280;12910;57.690;11.974;2023-04-22T02:56:14;100735.19;;;8.81;100.00
24825;BME280;12910;57.690;11.974;2023-04-22T02:58:39;100722.22;;;8.73;100.00
24825;BME280;12910;57.690;11.974;2023-04-22T03:01:04;100725.91;;;8.84;100.00
24825;BME280;12910;57.690;11.974;2023-04-22T03:03:30;100725.94;;;8.86;100.00
24825;BME280;12910;57.690;11.974;2023-04-22T03:05:56;100718.28;;;8.86;100.00
24825;BME280;12910;57.690;11.974;2023-04-22T03:08:21;100723.41;;;8.86;100.00
24825;BME280;12910;57.690;11.974;2023-04-22T03:10:47;100720.00;;;8.87;100.00
24825;BME280;12910;57.690;11.974;2023-04-22T03:13:12;100717.47;;;8.87;100.00
24825;BME280;12910;57.690;11.974;2023-04-22T03:15:41;100700.19;;;8.78;100.00
24825;BME280;12910;57.690;11.974;2023-04-22T03:18:07;100718.88;;;8.76;100.00
24825;BME280;12910;57.690;11.974;2023-04-22T03:20:33;100717.25;;;8.79;100.00
24825;BME280;12910;57.690;11.974;2023-04-22T03:22:59;100715.53;;;8.78;100.00
24825;BME280;12910;57.690;11.974;2023-04-22T03:25:24;100718.13;;;8.80;100.00
24825;BME280;12910;57.690;11.974;2023-04-22T03:27:50;100706.28;;;8.83;100.00
24825;BME280;12910;57.690;11.974;2023-04-22T03:30:15;100710.53;;;8.83;100.00
24825;BME280;12910;57.690;11.974;2023-04-22T03:32:41;100709.78;;;8.87;100.00
24825;BME280;12910;57.690;11.974;2023-04-22T03:35:06;100704.69;;;8.87;100.00
24825;BME280;12910;57.690;11.974;2023-04-22T03:37:32;100702.91;;;8.84;100.00
24825;BME280;12910;57.690;11.974;2023-04-22T03:39:57;100678.94;;;8.79;100.00
24825;BME280;12910;57.690;11.974;2023-04-22T03:42:22;100693.66;;;8.89;100.00
24825;BME280;12910;57.690;11.974;2023-04-22T03:44:48;100693.78;;;8.96;100.00
24825;BME280;12910;57.690;11.974;2023-04-22T03:47:13;100689.63;;;8.99;100.00
24825;BME280;12910;57.690;11.974;2023-04-22T03:49:39;100685.34;;;8.98;100.00
24825;BME280;12910;57.690;11.974;2023-04-22T03:52:04;100679.38;;;8.98;100.00
24825;BME280;12910;57.690;11.974;2023-04-22T03:54:29;100681.06;;;8.97;100.00
24825;BME280;12910;57.690;11.974;2023-04-22T03:56:55;100688.88;;;9.03;100.00
24825;BME280;12910;57.690;11.974;2023-04-22T03:59:20;100680.34;;;9.03;100.00
24825;BME280;12910;57.690;11.974;2023-04-22T04:01:46;100676.09;;;9.03;100.00
24825;BME280;12910;57.690;11.974;2023-04-22T04:04:11;100675.28;;;9.06;100.00
24825;BME280;12910;57.690;11.974;2023-04-22T04:06:37;100680.34;;;9.03;100.00
24825;BME280;12910;57.690;11.974;2023-04-22T04:09:02;100672.53;;;8.97;100.00
24825;BME280;12910;57.690;11.974;2023-04-22T04:11:28;100671.69;;;8.98;100.00
24825;BME280;12910;57.690;11.974;2023-04-22T04:13:53;100674.22;;;8.96;100.00
24825;BME280;12910;57.690;11.974;2023-04-22T04:16:19;100674.34;;;9.02;100.00
24825;BME280;12910;57.690;11.974;2023-04-22T04:18:44;100669.16;;;8.99;100.00
24825;BME280;12910;57.690;11.974;2023-04-22T04:21:09;100678.66;;;9.03;100.00
24825;BME280;12910;57.690;11.974;2023-04-22T04:23:35;100670.91;;;9.00;100.00
24825;BME280;12910;57.690;11.974;2023-04-22T04:26:02;100677.84;;;9.06;100.00
24825;BME280;12910;57.690;11.974;2023-04-22T04:28:29;100678.66;;;9.05;100.00
24825;BME280;12910;57.690;11.974;2023-04-22T04:30:57;100680.47;;;9.09;100.00
24825;BME280;12910;57.690;11.974;2023-04-22T04:33:23;100671.97;;;9.09;100.00
24825;BME280;12910;57.690;11.974;2023-04-22T04:35:48;100674.44;;;9.06;100.00
24825;BME280;12910;57.690;11.974;2023-04-22T04:38:13;100666.88;;;9.10;100.00
24825;BME280;12910;57.690;11.974;2023-04-22T04:40:39;100672.06;;;9.13;100.00
24825;BME280;12910;57.690;11.974;2023-04-22T04:43:04;100672.06;;;9.13;100.00
24825;BME280;12910;57.690;11.974;2023-04-22T04:45:33;100661.72;;;9.09;100.00
24825;BME280;12910;57.690;11.974;2023-04-22T04:48:01;100672.06;;;9.13;100.00
24825;BME280;12910;57.690;11.974;2023-04-22T04:50:27;100665.16;;;9.11;100.00
24825;BME280;12910;57.690;11.974;2023-04-22T04:52:53;100665.22;;;9.12;100.00
24825;BME280;12910;57.690;11.974;2023-04-22T04:55:18;100668.66;;;9.14;100.00
24825;BME280;12910;57.690;11.974;2023-04-22T04:57:44;100671.19;;;9.13;100.00
24825;BME280;12910;57.690;11.974;2023-04-22T05:00:11;100666.94;;;9.13;100.00
24825;BME280;12910;57.690;11.974;2023-04-22T05:02:38;100667.81;;;9.14;100.00
24825;BME280;12910;57.690;11.974;2023-04-22T05:05:03;100665.25;;;9.14;100.00
24825;BME280;12910;57.690;11.974;2023-04-22T05:07:28;100662.69;;;9.14;100.00
24825;BME280;12910;57.690;11.974;2023-04-22T05:09:54;100659.28;;;9.13;100.00
24825;BME280;12910;57.690;11.974;2023-04-22T05:12:19;100662.81;;;9.20;100.00
24825;BME280;12910;57.690;11.974;2023-04-22T05:14:44;100661.09;;;9.19;100.00
24825;BME280;12910;57.690;11.974;2023-04-22T05:17:11;100660.31;;;9.22;100.00
24825;BME280;12910;57.690;11.974;2023-04-22T05:19:37;100659.44;;;9.21;100.00
24825;BME280;12910;57.690;11.974;2023-04-22T05:22:02;100661.19;;;9.24;100.00
24825;BME280;12910;57.690;11.974;2023-04-22T05:24:28;100658.72;;;9.27;100.00
24825;BME280;12910;57.690;11.974;2023-04-22T05:26:53;100643.44;;;9.30;100.00
24825;BME280;12910;57.690;11.974;2023-04-22T05:29:18;100643.44;;;9.30;100.00
24825;BME280;12910;57.690;11.974;2023-04-22T05:31:44;100650.34;;;9.34;100.00
24825;BME280;12910;57.690;11.974;2023-04-22T05:34:09;100640.94;;;9.33;100.00
24825;BME280;12910;57.690;11.974;2023-04-22T05:36:36;100643.63;;;9.39;100.00
24825;BME280;12910;57.690;11.974;2023-04-22T05:39:01;100640.28;;;9.42;100.00
24825;BME280;12910;57.690;11.974;2023-04-22T05:41:26;100642.09;;;9.46;100.00
24825;BME280;12910;57.690;11.974;2023-04-22T05:43:52;100633.56;;;9.47;100.00
24825;BME280;12910;57.690;11.974;2023-04-22T05:46:17;100634.50;;;9.50;100.00
24825;BME280;12910;57.690;11.974;2023-04-22T05:48:42;100623.38;;;9.48;100.00
24825;BME280;12910;57.690;11.974;2023-04-22T05:51:08;100618.34;;;9.53;100.00
24825;BME280;12910;57.690;11.974;2023-04-22T05:53:33;100627.78;;;9.57;100.00
24825;BME280;12910;57.690;11.974;2023-04-22T05:55:59;100627.84;;;9.60;100.00
24825;BME280;12910;57.690;11.974;2023-04-22T05:58:24;100624.47;;;9.61;100.00
24825;BME280;12910;57.690;11.974;2023-04-22T06:00:50;100629.66;;;9.64;100.00
24825;BME280;12910;57.690;11.974;2023-04-22T06:03:15;100615.97;;;9.62;100.00
24825;BME280;12910;57.690;11.974;2023-04-22T06:05:40;100618.63;;;9.69;100.00
24825;BME280;12910;57.690;11.974;2023-04-22T06:08:07;100608.47;;;9.72;100.00
24825;BME280;12910;57.690;11.974;2023-04-22T06:10:32;100607.75;;;9.79;100.00
24825;BME280;12910;57.690;11.974;2023-04-22T06:12:57;100610.34;;;9.80;100.00
24825;BME280;12910;57.690;11.974;2023-04-22T06:15:24;100588.00;;;9.73;100.00
24825;BME280;12910;57.690;11.974;2023-04-22T06:17:49;100606.19;;;9.87;100.00
24825;BME280;12910;57.690;11.974;2023-04-22T06:20:15;100605.34;;;9.88;100.00
24825;BME280;12910;57.690;11.974;2023-04-22T06:22:40;100603.72;;;9.92;100.00
24825;BME280;12910;57.690;11.974;2023-04-22T06:25:06;100599.47;;;9.92;100.00
24825;BME280;12910;57.690;11.974;2023-04-22T06:27:31;100603.88;;;10.00;100.00
24825;BME280;12910;57.690;11.974;2023-04-22T06:29:56;100603.06;;;10.02;100.00
24825;BME280;12910;57.690;11.974;2023-04-22T06:32:22;100585.09;;;9.99;100.00
24825;BME280;12910;57.690;11.974;2023-04-22T06:34:47;100598.91;;;10.09;100.00
24825;BME280;12910;57.690;11.974;2023-04-22T06:37:12;100579.22;;;10.05;100.00
24825;BME280;12910;57.690;11.974;2023-04-22T06:39:38;100599.06;;;10.18;100.00
24825;BME280;12910;57.690;11.974;2023-04-22T06:42:03;100582.03;;;10.20;100.00
24825;BME280;12910;57.690;11.974;2023-04-22T06:44:28;100577.00;;;10.26;100.00
24825;BME280;12910;57.690;11.974;2023-04-22T06:46:55;100577.97;;;10.32;100.00
24825;BME280;12910;57.690;11.974;2023-04-22T06:49:20;100574.59;;;10.36;100.00
24825;BME280;12910;57.690;11.974;2023-04-22T06:51:46;100561.88;;;10.39;100.00
24825;BME280;12910;57.690;11.974;2023-04-22T06:54:11;100562.78;;;10.41;100.00
24825;BME280;12910;57.690;11.974;2023-04-22T06:56:36;100574.91;;;10.53;100.00
24825;BME280;12910;57.690;11.974;2023-04-22T06:59:02;100561.25;;;10.52;100.00
24825;BME280;12910;57.690;11.974;2023-04-22T07:01:27;100566.50;;;10.62;100.00
24825;BME280;12910;57.690;11.974;2023-04-22T07:03:52;100563.09;;;10.63;100.00
24825;BME280;12910;57.690;11.974;2023-04-22T07:06:18;100568.31;;;10.69;100.00
24825;BME280;12910;57.690;11.974;2023-04-22T07:08:43;100564.09;;;10.72;100.00
24825;BME280;12910;57.690;11.974;2023-04-22T07:11:09;100565.91;;;10.80;100.00
24825;BME280;12910;57.690;11.974;2023-04-22T07:13:34;100565.13;;;10.87;100.00
24825;BME280;12910;57.690;11.974;2023-04-22T07:16:00;100560.00;;;10.85;100.00
24825;BME280;12910;57.690;11.974;2023-04-22T07:18:27;100559.28;;;10.94;100.00
24825;BME280;12910;57.690;11.974;2023-04-22T07:20:53;100564.47;;;11.00;100.00
24825;BME280;12910;57.690;11.974;2023-04-22T07:23:18;100555.13;;;11.04;100.00
24825;BME280;12910;57.690;11.974;2023-04-22T07:25:43;100556.00;;;11.07;100.00
24825;BME280;12910;57.690;11.974;2023-04-22T07:28:09;100556.06;;;11.11;100.00
24825;BME280;12910;57.690;11.974;2023-04-22T07:30:34;100548.44;;;11.15;100.00
24825;BME280;12910;57.690;11.974;2023-04-22T07:33:00;100540.78;;;11.21;100.00
24825;BME280;12910;57.690;11.974;2023-04-22T07:35:25;100542.63;;;11.29;100.00
24825;BME280;12910;57.690;11.974;2023-04-22T07:37:52;100539.22;;;11.31;100.00
24825;BME280;12910;57.690;11.974;2023-04-22T07:40:18;100534.94;;;11.30;100.00
24825;BME280;12910;57.690;11.974;2023-04-22T07:42:44;100542.75;;;11.41;100.00
24825;BME280;12910;57.690;11.974;2023-04-22T07:45:09;100541.06;;;11.45;100.00
24825;BME280;12910;57.690;11.974;2023-04-22T07:47:35;100534.28;;;11.50;100.00
24825;BME280;12910;57.690;11.974;2023-04-22T07:50:01;100534.34;;;11.53;100.00
24825;BME280;12910;57.690;11.974;2023-04-22T07:52:26;100521.56;;;11.58;100.00
24825;BME280;12910;57.690;11.974;2023-04-22T07:54:52;100534.53;;;11.72;100.00
24825;BME280;12910;57.690;11.974;2023-04-22T07:57:17;100521.69;;;11.72;100.00
24825;BME280;12910;57.690;11.974;2023-04-22T07:59:45;100519.97;;;11.72;100.00
24825;BME280;12910;57.690;11.974;2023-04-22T08:02:11;100529.47;;;11.82;100.00
24825;BME280;12910;57.690;11.974;2023-04-22T08:04:36;100516.66;;;11.82;100.00
24825;BME280;12910;57.690;11.974;2023-04-22T08:07:02;100517.53;;;11.86;100.00
24825;BME280;12910;57.690;11.974;2023-04-22T08:09:28;100521.88;;;11.92;100.00
24825;BME280;12910;57.690;11.974;2023-04-22T08:11:53;100516.75;;;11.95;100.00
24825;BME280;12910;57.690;11.974;2023-04-22T08:14:18;100516.00;;;12.04;100.00
24825;BME280;12910;57.690;11.974;2023-04-22T08:16:44;100505.72;;;12.00;100.00
24825;BME280;12910;57.690;11.974;2023-04-22T08:19:09;100519.56;;;12.17;100.00
24825;BME280;12910;57.690;11.974;2023-04-22T08:21:35;100516.16;;;12.19;98.60
24825;BME280;12910;57.690;11.974;2023-04-22T08:24:01;100508.47;;;12.24;94.95
24825;BME280;12910;57.690;11.974;2023-04-22T08:26:27;100510.25;;;12.34;94.96
24825;BME280;12910;57.690;11.974;2023-04-22T08:28:52;100487.09;;;12.29;95.56
24825;BME280;12910;57.690;11.974;2023-04-22T08:31:17;100506.91;;;12.44;93.45
24825;BME280;12910;57.690;11.974;2023-04-22T08:33:43;100506.94;;;12.51;90.61
24825;BME280;12910;57.690;11.974;2023-04-22T08:36:08;100505.25;;;12.59;89.39
24825;BME280;12910;57.690;11.974;2023-04-22T08:38:35;100499.28;;;12.60;88.70
24825;BME280;12910;57.690;11.974;2023-04-22T08:41:02;100506.19;;;12.69;85.45
24825;BME280;12910;57.690;11.974;2023-04-22T08:43:29;100499.34;;;12.74;84.01
24825;BME280;12910;57.690;11.974;2023-04-22T08:45:55;100495.06;;;12.74;84.01
24825;BME280;12910;57.690;11.974;2023-04-22T08:48:20;100498.50;;;12.76;81.54
24825;BME280;12910;57.690;11.974;2023-04-22T08:50:46;100486.50;;;12.75;81.03
24825;BME280;12910;57.690;11.974;2023-04-22T08:53:13;100487.38;;;12.82;79.68
24825;BME280;12910;57.690;11.974;2023-04-22T08:55:39;100490.88;;;12.92;77.30
24825;BME280;12910;57.690;11.974;2023-04-22T08:58:07;100492.63;;;13.02;72.71
24825;BME280;12910;57.690;11.974;2023-04-22T09:00:34;100484.06;;;13.06;72.73
24825;BME280;12910;57.690;11.974;2023-04-22T09:03:01;100481.50;;;13.09;70.57
24825;BME280;12910;57.690;11.974;2023-04-22T09:05:28;100484.97;;;13.21;69.27
24825;BME280;12910;57.690;11.974;2023-04-22T09:07:57;100483.25;;;13.26;69.05
24825;BME280;12910;57.690;11.974;2023-04-22T09:10:22;100481.56;;;13.30;68.79
24825;BME280;12910;57.690;11.974;2023-04-22T09:12:48;100484.13;;;13.34;70.41
24825;BME280;12910;57.690;11.974;2023-04-22T09:15:14;100474.69;;;13.33;69.05
24825;BME280;12910;57.690;11.974;2023-04-22T09:17:39;100474.75;;;13.43;64.77
24825;BME280;12910;57.690;11.974;2023-04-22T09:20:06;100489.38;;;13.58;64.94
24825;BME280;12910;57.690;11.974;2023-04-22T09:22:46;100473.94;;;13.59;65.29
24825;BME280;12910;57.690;11.974;2023-04-22T09:25:22;100475.66;;;13.62;66.84
24825;BME280;12910;57.690;11.974;2023-04-22T09:30:23;100475.66;;;13.55;70.23
24825;BME280;12910;57.690;11.974;2023-04-22T09:32:53;100490.25;;;13.58;71.62
24825;BME280;12910;57.690;11.974;2023-04-22T09:35:27;100491.09;;;13.57;71.68
24825;BME280;12910;57.690;11.974;2023-04-22T09:37:53;100477.34;;;13.52;74.27
24825;BME280;12910;57.690;11.974;2023-04-22T09:40:18;100474.81;;;13.67;72.59
24825;BME280;12910;57.690;11.974;2023-04-22T09:42:53;100474.81;;;13.75;72.14
24825;BME280;12910;57.690;11.974;2023-04-22T09:45:33;100479.97;;;13.81;73.44
24825;BME280;12910;57.690;11.974;2023-04-22T09:48:09;100480.81;;;13.86;68.40
24825;BME280;12910;57.690;11.974;2023-04-22T09:50:36;100472.22;;;13.87;67.72
24825;BME280;12910;57.690;11.974;2023-04-22T09:53:07;100467.09;;;13.98;68.92
24825;BME280;12910;57.690;11.974;2023-04-22T09:55:35;100469.66;;;13.94;68.21
24825;BME280;12910;57.690;11.974;2023-04-22T09:58:09;100458.47;;;13.85;67.20
24825;BME280;12910;57.690;11.974;2023-04-22T10:00:40;100465.34;;;13.86;66.90
24825;BME280;12910;57.690;11.974;2023-04-22T10:03:06;100461.06;;;13.96;64.60
24825;BME280;12910;57.690;11.974;2023-04-22T10:05:32;100461.06;;;14.02;66.30
24825;BME280;12910;57.690;11.974;2023-04-22T10:08:02;100455.91;;;14.06;65.75
24825;BME280;12910;57.690;11.974;2023-04-22T10:10:29;100446.44;;;14.09;64.36
24825;BME280;12910;57.690;11.974;2023-04-22T10:12:54;100441.28;;;14.17;63.32
24825;BME280;12910;57.690;11.974;2023-04-22T10:15:20;100445.56;;;14.30;61.70
24825;BME280;12910;57.690;11.974;2023-04-22T10:17:46;100433.53;;;14.23;63.06
24825;BME280;12910;57.690;11.974;2023-04-22T10:20:15;100442.97;;;14.29;61.08
24825;BME280;12910;57.690;11.974;2023-04-22T10:22:42;100432.69;;;14.32;58.83
24825;BME280;12910;57.690;11.974;2023-04-22T10:25:11;100428.31;;;14.49;59.60
24825;BME280;12910;57.690;11.974;2023-04-22T10:27:37;100417.16;;;14.51;59.87
24825;BME280;12910;57.690;11.974;2023-04-22T10:30:03;100422.28;;;14.52;58.83
24825;BME280;12910;57.690;11.974;2023-04-22T10:32:29;100422.25;;;14.66;58.46
24825;BME280;12910;57.690;11.974;2023-04-22T10:35:12;100420.53;;;14.60;56.20
24825;BME280;12910;57.690;11.974;2023-04-22T10:37:41;100411.06;;;14.65;52.78
24825;BME280;12910;57.690;11.974;2023-04-22T10:40:14;100411.91;;;14.75;53.94
24825;BME280;12910;57.690;11.974;2023-04-22T10:42:45;100406.72;;;14.80;54.12
24825;BME280;12910;57.690;11.974;2023-04-22T10:45:12;100402.44;;;14.82;54.94
24825;BME280;12910;57.690;11.974;2023-04-22T10:47:38;100385.22;;;14.83;54.24
24825;BME280;12910;57.690;11.974;2023-04-22T10:50:23;100393.81;;;14.88;52.85
24825;BME280;12910;57.690;11.974;2023-04-22T10:52:51;100397.22;;;14.94;52.94
24825;BME280;12910;57.690;11.974;2023-04-22T10:55:17;100380.00;;;14.93;52.41
24825;BME280;12910;57.690;11.974;2023-04-22T10:57:45;100380.72;;;15.19;49.83
24825;BME280;12910;57.690;11.974;2023-04-22T11:00:27;100384.94;;;15.24;49.58
24825;BME280;12910;57.690;11.974;2023-04-22T11:05:26;100367.72;;;15.30;50.32
24825;BME280;12910;57.690;11.974;2023-04-22T11:07:53;100376.28;;;15.35;50.79
24825;BME280;12910;57.690;11.974;2023-04-22T11:13:00;100367.66;;;15.39;49.16
24825;BME280;12910;57.690;11.974;2023-04-22T11:15:28;100353.81;;;15.46;49.91
24825;BME280;12910;57.690;11.974;2023-04-22T11:17:54;100360.72;;;15.44;50.24
24825;BME280;12910;57.690;11.974;2023-04-22T11:20:20;100355.47;;;15.53;49.22
24825;BME280;12910;57.690;11.974;2023-04-22T11:22:50;100360.59;;;15.56;50.41
24825;BME280;12910;57.690;11.974;2023-04-22T11:25:16;100341.78;;;15.43;51.20
24825;BME280;12910;57.690;11.974;2023-04-22T11:27:41;100355.53;;;15.44;50.27
24825;BME280;12910;57.690;11.974;2023-04-22T11:30:08;100358.94;;;15.52;49.38
24825;BME280;12910;57.690;11.974;2023-04-22T11:32:36;100354.56;;;15.61;49.80
24825;BME280;12910;57.690;11.974;2023-04-22T11:35:06;100347.66;;;15.63;50.68
24825;BME280;12910;57.690;11.974;2023-04-22T11:37:46;100355.38;;;15.67;51.56
24825;BME280;12910;57.690;11.974;2023-04-22T11:40:25;100353.59;;;15.71;49.53
24825;BME280;12910;57.690;11.974;2023-04-22T11:42:51;100352.66;;;15.78;50.24
24825;BME280;12910;57.690;11.974;2023-04-22T11:45:17;100344.03;;;15.81;51.80
24825;BME280;12910;57.690;11.974;2023-04-22T11:47:43;100334.53;;;15.84;51.71
24825;BME280;12910;57.690;11.974;2023-04-22T11:50:12;100340.53;;;15.83;50.60
24825;BME280;12910;57.690;11.974;2023-04-22T11:52:50;100338.03;;;15.77;51.54
24825;BME280;12910;57.690;11.974;2023-04-22T11:58:10;100349.19;;;15.81;52.16
24825;BME280;12910;57.690;11.974;2023-04-22T12:00:48;100346.69;;;15.73;52.87
24825;BME280;12910;57.690;11.974;2023-04-22T12:03:18;100346.69;;;15.71;52.14
24825;BME280;12910;57.690;11.974;2023-04-22T12:06:00;100347.53;;;15.75;53.90
24825;BME280;12910;57.690;11.974;2023-04-22T12:08:36;100342.31;;;15.80;53.88
24825;BME280;12910;57.690;11.974;2023-04-22T12:11:08;100330.25;;;15.80;54.34
24825;BME280;12910;57.690;11.974;2023-04-22T12:16:05;100338.00;;;15.80;53.97
24825;BME280;12910;57.690;11.974;2023-04-22T12:18:35;100343.22;;;15.76;54.55
24825;BME280;12910;57.690;11.974;2023-04-22T12:23:42;100326.91;;;15.69;54.90
24825;BME280;12910;57.690;11.974;2023-04-22T12:26:08;100341.50;;;15.73;55.66
24825;BME280;12910;57.690;11.974;2023-04-22T12:28:36;100334.59;;;15.77;56.02
24825;BME280;12910;57.690;11.974;2023-04-22T12:31:02;100330.25;;;15.80;56.12
24825;BME280;12910;57.690;11.974;2023-04-22T12:33:27;100312.19;;;15.77;57.01
24825;BME280;12910;57.690;11.974;2023-04-22T12:35:53;100320.75;;;15.82;57.68
24825;BME280;12910;57.690;11.974;2023-04-22T12:38:18;100313.84;;;15.87;57.54
24825;BME280;12910;57.690;11.974;2023-04-22T12:40:44;100306.09;;;15.83;57.31
24825;BME280;12910;57.690;11.974;2023-04-22T12:43:09;100303.53;;;15.80;57.79
24825;BME280;12910;57.690;11.974;2023-04-22T12:45:35;100297.44;;;15.90;58.28
24825;BME280;12910;57.690;11.974;2023-04-22T12:48:00;100305.94;;;16.01;58.26
24825;BME280;12910;57.690;11.974;2023-04-22T12:50:26;100301.59;;;16.02;56.87